sensor_id;sensor_type;location;lat;lon;timestamp;P1;durP1;ratioP1;P2;durP2;ratioP2
15022;SDS011;19850;49.576;10.880;2023-04-25T00:03:20;2.80;;;2.60;;
15022;SDS011;19850;49.576;10.880;2023-04-25T00:07:26;2.80;;;2.60;;
15022;SDS011;19850;49.576;10.880;2023-04-25T00:11:30;2.80;;;2.60;;
15022;SDS011;19850;49.576;10.880;2023-04-25T00:15:33;2.70;;;2.50;;
15022;SDS011;19850;49.576;10.880;2023-04-25T00:19:37;3.17;;;2.90;;
15022;SDS011;19850;49.576;10.880;2023-04-25T00:23:39;2.93;;;2.73;;
15022;SDS011;19850;49.576;10.880;2023-04-25T00:27:44;2.70;;;2.50;;
15022;SDS011;19850;49.576;10.880;2023-04-25T00:31:46;2.70;;;2.50;;
15022;SDS011;19850;49.576;10.880;2023-04-25T00:35:49;2.83;;;2.63;;
15022;SDS011;19850;49.576;10.880;2023-04-25T00:39:52;2.63;;;2.50;;
15022;SDS011;19850;49.576;10.880;2023-04-25T00:43:58;2.87;;;2.67;;
15022;SDS011;19850;49.576;10.880;2023-04-25T00:48:01;2.70;;;2.50;;
15022;SDS011;19850;49.576;10.880;2023-04-25T00:52:04;2.63;;;2.50;;
15022;SDS011;19850;49.576;10.880;2023-04-25T00:56:07;3.00;;;2.80;;
15022;SDS011;19850;49.576;10.880;2023-04-25T01:00:13;2.63;;;2.43;;
15022;SDS011;19850;49.576;10.880;2023-04-25T01:04:16;3.13;;;2.90;;
15022;SDS011;19850;49.576;10.880;2023-04-25T01:08:19;2.40;;;2.30;;
15022;SDS011;19850;49.576;10.880;2023-04-25T01:12:24;3.23;;;2.57;;
15022;SDS011;19850;49.576;10.880;2023-04-25T01:16:28;2.90;;;2.70;;
15022;SDS011;19850;49.576;10.880;2023-04-25T01:20:31;2.77;;;2.60;;
15022;SDS011;19850;49.576;10.880;2023-04-25T01:24:36;3.50;;;3.20;;
15022;SDS011;19850;49.576;10.880;2023-04-25T01:28:39;5.23;;;2.90;;
15022;SDS011;19850;49.576;10.880;2023-04-25T01:32:43;2.93;;;2.73;;
15022;SDS011;19850;49.576;10.880;2023-04-25T01:36:47;3.43;;;3.20;;
15022;SDS011;19850;49.576;10.880;2023-04-25T01:40:53;2.80;;;2.60;;
15022;SDS011;19850;49.576;10.880;2023-04-25T01:44:56;2.93;;;2.70;;
15022;SDS011;19850;49.576;10.880;2023-04-25T01:48:59;3.57;;;3.27;;
15022;SDS011;19850;49.576;10.880;2023-04-25T01:53:01;2.83;;;2.63;;
15022;SDS011;19850;49.576;10.880;2023-04-25T01:57:06;2.73;;;2.30;;
15022;SDS011;19850;49.576;10.880;2023-04-25T02:01:08;3.90;;;2.80;;
15022;SDS011;19850;49.576;10.880;2023-04-25T02:05:11;3.27;;;3.00;;
15022;SDS011;19850;49.576;10.880;2023-04-25T02:09:20;3.07;;;2.87;;
15022;SDS011;19850;49.576;10.880;2023-04-25T02:13:25;3.20;;;2.87;;
15022;SDS011;19850;49.576;10.880;2023-04-25T02:17:29;2.90;;;2.70;;
15022;SDS011;19850;49.576;10.880;2023-04-25T02:21:33;2.97;;;2.70;;
15022;SDS011;19850;49.576;10.880;2023-04-25T02:25:36;3.10;;;2.90;;
15022;SDS011;19850;49.576;10.880;2023-04-25T02:29:41;3.17;;;2.90;;
15022;SDS011;19850;49.576;10.880;2023-04-25T02:33:44;3.30;;;3.00;;
15022;SDS011;19850;49.576;10.880;2023-04-25T02:37:46;3.40;;;3.00;;
15022;SDS011;19850;49.576;10.880;2023-04-25T02:41:49;3.30;;;3.00;;
15022;SDS011;19850;49.576;10.880;2023-04-25T02:45:53;3.17;;;2.93;;
15022;SDS011;19850;49.576;10.880;2023-04-25T02:49:56;3.93;;;3.33;;
15022;SDS011;19850;49.576;10.880;2023-04-25T02:53:59;3.63;;;3.43;;
15022;SDS011;19850;49.576;10.880;2023-04-25T02:58:02;3.60;;;3.30;;
15022;SDS011;19850;49.576;10.880;2023-04-25T03:02:06;3.97;;;3.60;;
15022;SDS011;19850;49.576;10.880;2023-04-25T03:06:09;3.60;;;3.30;;
15022;SDS011;19850;49.576;10.880;2023-04-25T03:10:12;4.00;;;3.70;;
15022;SDS011;19850;49.576;10.880;2023-04-25T03:14:15;4.17;;;3.87;;
15022;SDS011;19850;49.576;10.880;2023-04-25T03:18:19;4.10;;;3.53;;
15022;SDS011;19850;49.576;10.880;2023-04-25T03:22:22;3.87;;;3.57;;
15022;SDS011;19850;49.576;10.880;2023-04-25T03:26:25;3.93;;;3.63;;
15022;SDS011;19850;49.576;10.880;2023-04-25T03:30:27;4.30;;;3.90;;
15022;SDS011;19850;49.576;10.880;2023-04-25T03:34:32;4.00;;;3.70;;
15022;SDS011;19850;49.576;10.880;2023-04-25T03:38:35;4.63;;;4.33;;
15022;SDS011;19850;49.576;10.880;2023-04-25T03:42:37;4.70;;;4.30;;
15022;SDS011;19850;49.576;10.880;2023-04-25T03:46:40;5.00;;;4.40;;
15022;SDS011;19850;49.576;10.880;2023-04-25T03:50:44;4.23;;;3.93;;
15022;SDS011;19850;49.576;10.880;2023-04-25T03:54:47;4.80;;;4.30;;
15022;SDS011;19850;49.576;10.880;2023-04-25T03:58:50;4.43;;;3.83;;
15022;SDS011;19850;49.576;10.880;2023-04-25T04:02:53;4.20;;;3.83;;
15022;SDS011;19850;49.576;10.880;2023-04-25T04:06:58;4.43;;;4.03;;
15022;SDS011;19850;49.576;10.880;2023-04-25T04:11:00;4.23;;;3.93;;
15022;SDS011;19850;49.576;10.880;2023-04-25T04:15:04;4.10;;;3.80;;
15022;SDS011;19850;49.576;10.880;2023-04-25T04:19:08;4.30;;;3.90;;
15022;SDS011;19850;49.576;10.880;2023-04-25T04:23:12;4.13;;;3.83;;
15022;SDS011;19850;49.576;10.880;2023-04-25T04:27:15;3.90;;;3.60;;
15022;SDS011;19850;49.576;10.880;2023-04-25T04:31:18;3.70;;;3.40;;
15022;SDS011;19850;49.576;10.880;2023-04-25T04:35:25;4.17;;;3.87;;
15022;SDS011;19850;49.576;10.880;2023-04-25T04:39:33;3.73;;;3.43;;
15022;SDS011;19850;49.576;10.880;2023-04-25T04:43:36;3.87;;;3.57;;
15022;SDS011;19850;49.576;10.880;2023-04-25T04:47:40;3.70;;;3.40;;
15022;SDS011;19850;49.576;10.880;2023-04-25T04:51:44;3.50;;;3.20;;
15022;SDS011;19850;49.576;10.880;2023-04-25T04:55:48;3.23;;;3.03;;
15022;SDS011;19850;49.576;10.880;2023-04-25T04:59:51;3.70;;;3.27;;
15022;SDS011;19850;49.576;10.880;2023-04-25T05:03:56;3.53;;;3.33;;
15022;SDS011;19850;49.576;10.880;2023-04-25T05:08:02;3.20;;;3.00;;
15022;SDS011;19850;49.576;10.880;2023-04-25T05:12:09;3.07;;;2.77;;
15022;SDS011;19850;49.576;10.880;2023-04-25T05:16:12;3.47;;;3.17;;
15022;SDS011;19850;49.576;10.880;2023-04-25T05:20:15;2.87;;;2.60;;
15022;SDS011;19850;49.576;10.880;2023-04-25T05:24:20;3.10;;;2.80;;
15022;SDS011;19850;49.576;10.880;2023-04-25T05:28:24;3.43;;;3.10;;
15022;SDS011;19850;49.576;10.880;2023-04-25T05:32:26;3.40;;;3.20;;
15022;SDS011;19850;49.576;10.880;2023-04-25T05:36:32;3.70;;;3.40;;
15022;SDS011;19850;49.576;10.880;2023-04-25T05:40:35;3.73;;;3.50;;
15022;SDS011;19850;49.576;10.880;2023-04-25T05:44:39;3.80;;;3.50;;
15022;SDS011;19850;49.576;10.880;2023-04-25T05:48:42;3.77;;;3.47;;
15022;SDS011;19850;49.576;10.880;2023-04-25T05:52:45;4.43;;;4.07;;
15022;SDS011;19850;49.576;10.880;2023-04-25T05:56:48;4.50;;;4.10;;
15022;SDS011;19850;49.576;10.880;2023-04-25T06:00:52;3.90;;;3.60;;
15022;SDS011;19850;49.576;10.880;2023-04-25T06:04:55;3.97;;;3.57;;
15022;SDS011;19850;49.576;10.880;2023-04-25T06:08:58;3.70;;;3.50;;
15022;SDS011;19850;49.576;10.880;2023-04-25T06:13:01;4.13;;;3.83;;
15022;SDS011;19850;49.576;10.880;2023-04-25T06:17:06;4.40;;;4.10;;
15022;SDS011;19850;49.576;10.880;2023-04-25T06:21:09;4.60;;;4.20;;
15022;SDS011;19850;49.576;10.880;2023-04-25T06:25:12;4.80;;;4.50;;
15022;SDS011;19850;49.576;10.880;2023-04-25T06:29:15;5.13;;;4.73;;
15022;SDS011;19850;49.576;10.880;2023-04-25T06:33:19;5.70;;;5.20;;
15022;SDS011;19850;49.576;10.880;2023-04-25T06:37:22;5.90;;;5.40;;
15022;SDS011;19850;49.576;10.880;2023-04-25T06:41:25;4.50;;;4.10;;
15022;SDS011;19850;49.576;10.880;2023-04-25T06:45:30;4.60;;;4.07;;
15022;SDS011;19850;49.576;10.880;2023-04-25T06:49:34;3.97;;;3.60;;
15022;SDS011;19850;49.576;10.880;2023-04-25T06:53:38;3.07;;;2.83;;
15022;SDS011;19850;49.576;10.880;2023-04-25T06:57:40;3.27;;;2.90;;
15022;SDS011;19850;49.576;10.880;2023-04-25T07:01:43;4.10;;;2.90;;
15022;SDS011;19850;49.576;10.880;2023-04-25T07:05:48;4.47;;;3.00;;
15022;SDS011;19850;49.576;10.880;2023-04-25T07:09:52;3.90;;;3.27;;
15022;SDS011;19850;49.576;10.880;2023-04-25T07:13:54;5.27;;;3.67;;
15022;SDS011;19850;49.576;10.880;2023-04-25T07:17:57;3.33;;;3.00;;
15022;SDS011;19850;49.576;10.880;2023-04-25T07:22:02;2.90;;;2.70;;
15022;SDS011;19850;49.576;10.880;2023-04-25T07:26:04;5.57;;;3.33;;
15022;SDS011;19850;49.576;10.880;2023-04-25T07:30:07;3.17;;;2.80;;
15022;SDS011;19850;49.576;10.880;2023-04-25T07:34:10;3.73;;;2.80;;
15022;SDS011;19850;49.576;10.880;2023-04-25T07:38:15;2.53;;;2.33;;
15022;SDS011;19850;49.576;10.880;2023-04-25T07:42:18;3.23;;;2.93;;
15022;SDS011;19850;49.576;10.880;2023-04-25T07:46:20;3.43;;;2.30;;
15022;SDS011;19850;49.576;10.880;2023-04-25T07:50:25;2.10;;;1.90;;
15022;SDS011;19850;49.576;10.880;2023-04-25T07:54:30;2.87;;;2.40;;
15022;SDS011;19850;49.576;10.880;2023-04-25T07:58:32;3.30;;;2.50;;
15022;SDS011;19850;49.576;10.880;2023-04-25T08:02:35;3.03;;;2.33;;
15022;SDS011;19850;49.576;10.880;2023-04-25T08:06:38;2.93;;;1.73;;
15022;SDS011;19850;49.576;10.880;2023-04-25T08:10:43;2.23;;;2.03;;
15022;SDS011;19850;49.576;10.880;2023-04-25T08:14:46;4.67;;;2.00;;
15022;SDS011;19850;49.576;10.880;2023-04-25T08:18:49;2.43;;;2.20;;
15022;SDS011;19850;49.576;10.880;2023-04-25T08:22:53;4.23;;;2.47;;
15022;SDS011;19850;49.576;10.880;2023-04-25T08:26:57;4.30;;;3.43;;
15022;SDS011;19850;49.576;10.880;2023-04-25T08:31:00;4.53;;;4.13;;
15022;SDS011;19850;49.576;10.880;2023-04-25T08:35:03;5.00;;;4.50;;
15022;SDS011;19850;49.576;10.880;2023-04-25T08:39:07;5.33;;;4.17;;
15022;SDS011;19850;49.576;10.880;2023-04-25T08:43:11;4.67;;;3.80;;
15022;SDS011;19850;49.576;10.880;2023-04-25T08:47:16;4.73;;;3.87;;
15022;SDS011;19850;49.576;10.880;2023-04-25T08:51:21;4.37;;;3.97;;
15022;SDS011;19850;49.576;10.880;2023-04-25T08:55:29;4.10;;;3.70;;
15022;SDS011;19850;49.576;10.880;2023-04-25T08:59:33;3.50;;;3.20;;
15022;SDS011;19850;49.576;10.880;2023-04-25T09:03:39;4.03;;;3.63;;
15022;SDS011;19850;49.576;10.880;2023-04-25T09:07:42;3.63;;;3.23;;
15022;SDS011;19850;49.576;10.880;2023-04-25T09:11:45;3.90;;;3.50;;
15022;SDS011;19850;49.576;10.880;2023-04-25T09:15:49;3.53;;;3.23;;
15022;SDS011;19850;49.576;10.880;2023-04-25T09:19:53;3.93;;;3.53;;
15022;SDS011;19850;49.576;10.880;2023-04-25T09:23:56;3.00;;;2.70;;
15022;SDS011;19850;49.576;10.880;2023-04-25T09:28:03;4.07;;;2.80;;
15022;SDS011;19850;49.576;10.880;2023-04-25T09:32:16;3.63;;;2.97;;
15022;SDS011;19850;49.576;10.880;2023-04-25T09:36:20;2.33;;;2.10;;
15022;SDS011;19850;49.576;10.880;2023-04-25T09:40:28;3.90;;;2.50;;
15022;SDS011;19850;49.576;10.880;2023-04-25T09:44:32;4.20;;;2.33;;
15022;SDS011;19850;49.576;10.880;2023-04-25T09:48:37;2.63;;;2.07;;
15022;SDS011;19850;49.576;10.880;2023-04-25T09:52:39;2.37;;;1.77;;
15022;SDS011;19850;49.576;10.880;2023-04-25T09:56:42;2.53;;;2.10;;
15022;SDS011;19850;49.576;10.880;2023-04-25T10:00:46;3.87;;;1.90;;
15022;SDS011;19850;49.576;10.880;2023-04-25T10:04:50;3.47;;;1.80;;
15022;SDS011;19850;49.576;10.880;2023-04-25T10:08:57;2.07;;;1.83;;
15022;SDS011;19850;49.576;10.880;2023-04-25T10:13:04;4.20;;;2.17;;
15022;SDS011;19850;49.576;10.880;2023-04-25T10:17:08;3.50;;;1.70;;
15022;SDS011;19850;49.576;10.880;2023-04-25T10:21:14;3.50;;;2.10;;
15022;SDS011;19850;49.576;10.880;2023-04-25T10:25:18;2.17;;;1.77;;
15022;SDS011;19850;49.576;10.880;2023-04-25T10:29:21;2.43;;;1.53;;
15022;SDS011;19850;49.576;10.880;2023-04-25T10:33:34;2.63;;;1.53;;
15022;SDS011;19850;49.576;10.880;2023-04-25T10:37:39;2.23;;;1.60;;
15022;SDS011;19850;49.576;10.880;2023-04-25T10:41:59;3.10;;;1.90;;
15022;SDS011;19850;49.576;10.880;2023-04-25T10:50:25;3.10;;;1.50;;
15022;SDS011;19850;49.576;10.880;2023-04-25T10:54:43;1.57;;;1.37;;
15022;SDS011;19850;49.576;10.880;2023-04-25T10:58:49;2.07;;;1.10;;
15022;SDS011;19850;49.576;10.880;2023-04-25T11:02:57;2.27;;;1.20;;
15022;SDS011;19850;49.576;10.880;2023-04-25T11:07:03;1.90;;;1.40;;
15022;SDS011;19850;49.576;10.880;2023-04-25T11:11:25;1.20;;;1.10;;
15022;SDS011;19850;49.576;10.880;2023-04-25T11:15:28;1.00;;;0.90;;
15022;SDS011;19850;49.576;10.880;2023-04-25T11:19:31;1.00;;;1.00;;
15022;SDS011;19850;49.576;10.880;2023-04-25T11:23:33;1.70;;;1.20;;
15022;SDS011;19850;49.576;10.880;2023-04-25T11:27:50;0.93;;;0.80;;
15022;SDS011;19850;49.576;10.880;2023-04-25T11:31:53;2.93;;;1.10;;
15022;SDS011;19850;49.576;10.880;2023-04-25T11:35:58;1.30;;;1.00;;
15022;SDS011;19850;49.576;10.880;2023-04-25T11:40:03;1.83;;;1.20;;
15022;SDS011;19850;49.576;10.880;2023-04-25T11:44:12;1.67;;;1.10;;
15022;SDS011;19850;49.576;10.880;2023-04-25T11:48:17;1.30;;;1.20;;
15022;SDS011;19850;49.576;10.880;2023-04-25T11:52:35;0.80;;;0.80;;
15022;SDS011;19850;49.576;10.880;2023-04-25T11:56:41;1.23;;;1.10;;
15022;SDS011;19850;49.576;10.880;2023-04-25T12:00:45;1.30;;;1.20;;
15022;SDS011;19850;49.576;10.880;2023-04-25T12:04:51;1.40;;;1.30;;
15022;SDS011;19850;49.576;10.880;2023-04-25T12:09:01;1.57;;;0.97;;
15022;SDS011;19850;49.576;10.880;2023-04-25T12:13:17;1.30;;;1.20;;
15022;SDS011;19850;49.576;10.880;2023-04-25T12:17:22;1.53;;;1.23;;
15022;SDS011;19850;49.576;10.880;2023-04-25T12:21:27;1.17;;;1.10;;
15022;SDS011;19850;49.576;10.880;2023-04-25T12:25:35;1.20;;;1.10;;
15022;SDS011;19850;49.576;10.880;2023-04-25T12:29:39;1.93;;;1.50;;
15022;SDS011;19850;49.576;10.880;2023-04-25T12:33:51;6.00;;;1.87;;
15022;SDS011;19850;49.576;10.880;2023-04-25T12:37:55;1.83;;;1.53;;
15022;SDS011;19850;49.576;10.880;2023-04-25T12:41:58;1.80;;;1.60;;
15022;SDS011;19850;49.576;10.880;2023-04-25T12:46:01;1.80;;;1.70;;
15022;SDS011;19850;49.576;10.880;2023-04-25T12:50:06;3.07;;;1.50;;
15022;SDS011;19850;49.576;10.880;2023-04-25T12:54:09;1.80;;;1.60;;
15022;SDS011;19850;49.576;10.880;2023-04-25T12:58:12;1.70;;;1.60;;
15022;SDS011;19850;49.576;10.880;2023-04-25T13:02:15;1.60;;;1.50;;
15022;SDS011;19850;49.576;10.880;2023-04-25T13:06:20;2.27;;;1.73;;
15022;SDS011;19850;49.576;10.880;2023-04-25T13:10:23;1.70;;;1.60;;
15022;SDS011;19850;49.576;10.880;2023-04-25T13:14:26;2.17;;;1.73;;
15022;SDS011;19850;49.576;10.880;2023-04-25T13:18:29;2.07;;;1.57;;
15022;SDS011;19850;49.576;10.880;2023-04-25T13:22:33;2.47;;;1.97;;
15022;SDS011;19850;49.576;10.880;2023-04-25T13:26:38;2.33;;;1.87;;
15022;SDS011;19850;49.576;10.880;2023-04-25T13:30:40;2.10;;;2.00;;
15022;SDS011;19850;49.576;10.880;2023-04-25T13:34:44;1.83;;;1.70;;
15022;SDS011;19850;49.576;10.880;2023-04-25T13:38:49;2.10;;;1.90;;
15022;SDS011;19850;49.576;10.880;2023-04-25T13:42:52;2.37;;;2.17;;
15022;SDS011;19850;49.576;10.880;2023-04-25T13:46:55;2.73;;;2.13;;
15022;SDS011;19850;49.576;10.880;2023-04-25T13:50:58;2.77;;;2.17;;
15022;SDS011;19850;49.576;10.880;2023-04-25T13:55:02;4.20;;;1.93;;
15022;SDS011;19850;49.576;10.880;2023-04-25T13:59:08;4.30;;;2.33;;
15022;SDS011;19850;49.576;10.880;2023-04-25T14:03:10;2.60;;;2.40;;
15022;SDS011;19850;49.576;10.880;2023-04-25T14:07:14;5.00;;;2.47;;
15022;SDS011;19850;49.576;10.880;2023-04-25T14:11:19;3.00;;;2.50;;
15022;SDS011;19850;49.576;10.880;2023-04-25T14:15:22;3.30;;;2.60;;
15022;SDS011;19850;49.576;10.880;2023-04-25T14:19:26;3.30;;;2.63;;
15022;SDS011;19850;49.576;10.880;2023-04-25T14:23:30;2.57;;;2.37;;
15022;SDS011;19850;49.576;10.880;2023-04-25T14:27:34;3.33;;;2.10;;
15022;SDS011;19850;49.576;10.880;2023-04-25T14:31:36;2.70;;;2.50;;
15022;SDS011;19850;49.576;10.880;2023-04-25T14:35:40;4.13;;;2.43;;
15022;SDS011;19850;49.576;10.880;2023-04-25T14:39:43;3.30;;;2.20;;
15022;SDS011;19850;49.576;10.880;2023-04-25T14:43:48;2.20;;;2.00;;
15022;SDS011;19850;49.576;10.880;2023-04-25T14:47:54;2.40;;;2.20;;
15022;SDS011;19850;49.576;10.880;2023-04-25T14:51:57;2.50;;;2.20;;
15022;SDS011;19850;49.576;10.880;2023-04-25T14:56:00;3.70;;;2.73;;
15022;SDS011;19850;49.576;10.880;2023-04-25T15:00:04;2.53;;;2.33;;
15022;SDS011;19850;49.576;10.880;2023-04-25T15:04:10;2.93;;;2.53;;
15022;SDS011;19850;49.576;10.880;2023-04-25T15:08:14;2.50;;;2.13;;
15022;SDS011;19850;49.576;10.880;2023-04-25T15:12:17;3.43;;;2.67;;
15022;SDS011;19850;49.576;10.880;2023-04-25T15:16:21;3.10;;;2.50;;
15022;SDS011;19850;49.576;10.880;2023-04-25T15:20:24;2.37;;;2.17;;
15022;SDS011;19850;49.576;10.880;2023-04-25T15:24:30;3.83;;;2.20;;
15022;SDS011;19850;49.576;10.880;2023-04-25T15:28:33;3.50;;;2.07;;
15022;SDS011;19850;49.576;10.880;2023-04-25T15:32:37;2.63;;;2.43;;
15022;SDS011;19850;49.576;10.880;2023-04-25T15:36:40;4.10;;;2.27;;
15022;SDS011;19850;49.576;10.880;2023-04-25T15:40:43;2.50;;;2.20;;
15022;SDS011;19850;49.576;10.880;2023-04-25T15:44:46;3.00;;;2.40;;
15022;SDS011;19850;49.576;10.880;2023-04-25T15:48:50;2.43;;;2.23;;
15022;SDS011;19850;49.576;10.880;2023-04-25T15:52:53;2.50;;;2.30;;
15022;SDS011;19850;49.576;10.880;2023-04-25T15:56:56;2.50;;;2.10;;
15022;SDS011;19850;49.576;10.880;2023-04-25T16:00:59;3.53;;;2.20;;
15022;SDS011;19850;49.576;10.880;2023-04-25T16:05:03;2.13;;;1.93;;
15022;SDS011;19850;49.576;10.880;2023-04-25T16:09:06;2.50;;;2.10;;
15022;SDS011;19850;49.576;10.880;2023-04-25T16:13:10;2.47;;;2.10;;
15022;SDS011;19850;49.576;10.880;2023-04-25T16:17:13;4.97;;;2.30;;
15022;SDS011;19850;49.576;10.880;2023-04-25T16:21:17;2.97;;;2.20;;
15022;SDS011;19850;49.576;10.880;2023-04-25T16:25:22;2.77;;;2.00;;
15022;SDS011;19850;49.576;10.880;2023-04-25T16:29:25;3.03;;;1.90;;
15022;SDS011;19850;49.576;10.880;2023-04-25T16:33:28;3.40;;;2.33;;
15022;SDS011;19850;49.576;10.880;2023-04-25T16:37:33;3.90;;;1.87;;
15022;SDS011;19850;49.576;10.880;2023-04-25T16:41:36;1.90;;;1.60;;
15022;SDS011;19850;49.576;10.880;2023-04-25T16:45:39;5.43;;;2.00;;
15022;SDS011;19850;49.576;10.880;2023-04-25T16:49:41;4.27;;;2.20;;
15022;SDS011;19850;49.576;10.880;2023-04-25T16:53:46;3.60;;;2.17;;
15022;SDS011;19850;49.576;10.880;2023-04-25T16:57:49;4.87;;;1.80;;
15022;SDS011;19850;49.576;10.880;2023-04-25T17:01:52;2.57;;;1.60;;
15022;SDS011;19850;49.576;10.880;2023-04-25T17:05:55;2.63;;;1.60;;
15022;SDS011;19850;49.576;10.880;2023-04-25T17:09:59;1.70;;;1.60;;
15022;SDS011;19850;49.576;10.880;2023-04-25T17:14:02;3.87;;;1.70;;
15022;SDS011;19850;49.576;10.880;2023-04-25T17:18:06;2.10;;;1.60;;
15022;SDS011;19850;49.576;10.880;2023-04-25T17:22:09;3.50;;;1.70;;
15022;SDS011;19850;49.576;10.880;2023-04-25T17:26:13;3.60;;;1.60;;
15022;SDS011;19850;49.576;10.880;2023-04-25T17:30:16;3.93;;;2.13;;
15022;SDS011;19850;49.576;10.880;2023-04-25T17:34:19;3.40;;;1.87;;
15022;SDS011;19850;49.576;10.880;2023-04-25T17:38:22;3.47;;;2.07;;
15022;SDS011;19850;49.576;10.880;2023-04-25T17:42:26;4.70;;;2.40;;
15022;SDS011;19850;49.576;10.880;2023-04-25T17:46:29;2.50;;;1.73;;
15022;SDS011;19850;49.576;10.880;2023-04-25T17:50:32;3.27;;;1.90;;
15022;SDS011;19850;49.576;10.880;2023-04-25T17:54:35;5.37;;;2.00;;
15022;SDS011;19850;49.576;10.880;2023-04-25T17:58:39;3.53;;;1.83;;
15022;SDS011;19850;49.576;10.880;2023-04-25T18:02:42;3.17;;;1.80;;
15022;SDS011;19850;49.576;10.880;2023-04-25T18:06:47;4.50;;;2.07;;
15022;SDS011;19850;49.576;10.880;2023-04-25T18:10:50;6.40;;;2.10;;
15022;SDS011;19850;49.576;10.880;2023-04-25T18:14:55;4.40;;;1.93;;
15022;SDS011;19850;49.576;10.880;2023-04-25T18:18:57;3.07;;;1.80;;
15022;SDS011;19850;49.576;10.880;2023-04-25T18:23:05;5.40;;;2.00;;
15022;SDS011;19850;49.576;10.880;2023-04-25T18:27:09;5.07;;;2.10;;
15022;SDS011;19850;49.576;10.880;2023-04-25T18:31:13;3.23;;;1.97;;
15022;SDS011;19850;49.576;10.880;2023-04-25T18:35:17;5.63;;;2.30;;
15022;SDS011;19850;49.576;10.880;2023-04-25T18:39:20;4.43;;;2.20;;
15022;SDS011;19850;49.576;10.880;2023-04-25T18:43:24;7.63;;;2.60;;
15022;SDS011;19850;49.576;10.880;2023-04-25T18:47:29;5.73;;;2.30;;
15022;SDS011;19850;49.576;10.880;2023-04-25T18:51:33;6.70;;;2.50;;
15022;SDS011;19850;49.576;10.880;2023-04-25T18:55:37;5.63;;;2.40;;
15022;SDS011;19850;49.576;10.880;2023-04-25T18:59:41;6.63;;;2.40;;
15022;SDS011;19850;49.576;10.880;2023-04-25T19:03:46;3.47;;;2.00;;
15022;SDS011;19850;49.576;10.880;2023-04-25T19:07:57;6.00;;;2.23;;
15022;SDS011;19850;49.576;10.880;2023-04-25T19:12:00;3.70;;;2.20;;
15022;SDS011;19850;49.576;10.880;2023-04-25T19:16:04;5.13;;;2.60;;
15022;SDS011;19850;49.576;10.880;2023-04-25T19:20:09;3.93;;;2.20;;
15022;SDS011;19850;49.576;10.880;2023-04-25T19:24:13;6.47;;;2.33;;
15022;SDS011;19850;49.576;10.880;2023-04-25T19:28:16;5.80;;;2.40;;
15022;SDS011;19850;49.576;10.880;2023-04-25T19:32:19;7.77;;;2.90;;
15022;SDS011;19850;49.576;10.880;2023-04-25T19:36:23;6.23;;;2.50;;
15022;SDS011;19850;49.576;10.880;2023-04-25T19:40:28;6.27;;;2.30;;
15022;SDS011;19850;49.576;10.880;2023-04-25T19:44:31;5.23;;;2.40;;
15022;SDS011;19850;49.576;10.880;2023-04-25T19:48:34;4.80;;;2.70;;
15022;SDS011;19850;49.576;10.880;2023-04-25T19:52:38;7.43;;;3.00;;
15022;SDS011;19850;49.576;10.880;2023-04-25T19:56:42;5.17;;;2.43;;
15022;SDS011;19850;49.576;10.880;2023-04-25T20:00:44;5.03;;;2.30;;
15022;SDS011;19850;49.576;10.880;2023-04-25T20:04:47;5.27;;;2.17;;
15022;SDS011;19850;49.576;10.880;2023-04-25T20:08:53;3.50;;;2.30;;
15022;SDS011;19850;49.576;10.880;2023-04-25T20:12:56;4.60;;;2.20;;
15022;SDS011;19850;49.576;10.880;2023-04-25T20:16:59;3.83;;;2.30;;
15022;SDS011;19850;49.576;10.880;2023-04-25T20:21:02;5.50;;;2.30;;
15022;SDS011;19850;49.576;10.880;2023-04-25T20:25:06;5.73;;;2.30;;
15022;SDS011;19850;49.576;10.880;2023-04-25T20:29:11;6.67;;;2.63;;
15022;SDS011;19850;49.576;10.880;2023-04-25T20:33:13;6.13;;;2.83;;
15022;SDS011;19850;49.576;10.880;2023-04-25T20:37:16;4.83;;;2.47;;
15022;SDS011;19850;49.576;10.880;2023-04-25T20:41:21;4.80;;;2.30;;
15022;SDS011;19850;49.576;10.880;2023-04-25T20:45:23;5.93;;;2.60;;
15022;SDS011;19850;49.576;10.880;2023-04-25T20:49:30;5.47;;;2.87;;
15022;SDS011;19850;49.576;10.880;2023-04-25T20:53:33;6.23;;;2.67;;
15022;SDS011;19850;49.576;10.880;2023-04-25T20:57:37;4.77;;;2.70;;
15022;SDS011;19850;49.576;10.880;2023-04-25T21:01:40;6.13;;;2.70;;
15022;SDS011;19850;49.576;10.880;2023-04-25T21:05:43;4.63;;;2.50;;
15022;SDS011;19850;49.576;10.880;2023-04-25T21:09:46;3.10;;;2.43;;
15022;SDS011;19850;49.576;10.880;2023-04-25T21:13:51;4.73;;;2.50;;
15022;SDS011;19850;49.576;10.880;2023-04-25T21:17:54;6.13;;;2.33;;
15022;SDS011;19850;49.576;10.880;2023-04-25T21:21:57;7.67;;;2.80;;
15022;SDS011;19850;49.576;10.880;2023-04-25T21:26:00;7.07;;;2.80;;
15022;SDS011;19850;49.576;10.880;2023-04-25T21:30:08;6.53;;;2.80;;
15022;SDS011;19850;49.576;10.880;2023-04-25T21:34:11;6.37;;;2.50;;
15022;SDS011;19850;49.576;10.880;2023-04-25T21:38:14;7.23;;;2.90;;
15022;SDS011;19850;49.576;10.880;2023-04-25T21:42:18;3.77;;;2.80;;
15022;SDS011;19850;49.576;10.880;2023-04-25T21:46:22;8.13;;;3.87;;
15022;SDS011;19850;49.576;10.880;2023-04-25T21:50:26;10.67;;;5.47;;
15022;SDS011;19850;49.576;10.880;2023-04-25T21:54:29;4.70;;;3.07;;
15022;SDS011;19850;49.576;10.880;2023-04-25T21:58:32;5.67;;;2.97;;
15022;SDS011;19850;49.576;10.880;2023-04-25T22:02:37;7.53;;;3.30;;
15022;SDS011;19850;49.576;10.880;2023-04-25T22:06:40;4.60;;;3.20;;
15022;SDS011;19850;49.576;10.880;2023-04-25T22:10:43;7.93;;;4.00;;
15022;SDS011;19850;49.576;10.880;2023-04-25T22:14:46;7.47;;;3.47;;
15022;SDS011;19850;49.576;10.880;2023-04-25T22:18:51;6.80;;;3.53;;
15022;SDS011;19850;49.576;10.880;2023-04-25T22:22:54;5.93;;;3.00;;
15022;SDS011;19850;49.576;10.880;2023-04-25T22:26:57;4.43;;;2.70;;
15022;SDS011;19850;49.576;10.880;2023-04-25T22:31:00;5.47;;;2.77;;
15022;SDS011;19850;49.576;10.880;2023-04-25T22:35:06;6.60;;;3.23;;
15022;SDS011;19850;49.576;10.880;2023-04-25T22:39:09;7.43;;;2.70;;
15022;SDS011;19850;49.576;10.880;2023-04-25T22:43:15;5.13;;;2.70;;
15022;SDS011;19850;49.576;10.880;2023-04-25T22:47:19;4.80;;;2.83;;
15022;SDS011;19850;49.576;10.880;2023-04-25T22:51:26;5.80;;;3.00;;
15022;SDS011;19850;49.576;10.880;2023-04-25T22:55:29;4.73;;;3.17;;
15022;SDS011;19850;49.576;10.880;2023-04-25T22:59:32;7.03;;;3.03;;
15022;SDS011;19850;49.576;10.880;2023-04-25T23:03:36;5.23;;;2.83;;
15022;SDS011;19850;49.576;10.880;2023-04-25T23:07:42;8.00;;;3.50;;
15022;SDS011;19850;49.576;10.880;2023-04-25T23:11:47;5.03;;;2.90;;
15022;SDS011;19850;49.576;10.880;2023-04-25T23:15:53;6.80;;;3.10;;
15022;SDS011;19850;49.576;10.880;2023-04-25T23:19:56;6.93;;;3.20;;
15022;SDS011;19850;49.576;10.880;2023-04-25T23:24:00;4.83;;;2.93;;
15022;SDS011;19850;49.576;10.880;2023-04-25T23:28:02;5.77;;;3.17;;
15022;SDS011;19850;49.576;10.880;2023-04-25T23:32:05;6.93;;;3.53;;
15022;SDS011;19850;49.576;10.880;2023-04-25T23:36:15;4.77;;;3.03;;
15022;SDS011;19850;49.576;10.880;2023-04-25T23:40:21;7.20;;;3.00;;
15022;SDS011;19850;49.576;10.880;2023-04-25T23:44:24;6.73;;;3.23;;
15022;SDS011;19850;49.576;10.880;2023-04-25T23:48:27;6.87;;;3.57;;
15022;SDS011;19850;49.576;10.880;2023-04-25T23:52:30;6.77;;;3.47;;
15022;SDS011;19850;49.576;10.880;2023-04-25T23:56:34;5.17;;;3.03;;
